Time;durP1;ratioP1;P1;durP2;ratioP2;P2;SDS_P1;SDS_P2;PMS_P1;PMS_P2;Temp;Humidity;BMP_temperature;BMP_pressure;BME280_temperature;BME280_humidity;BME280_pressure;Samples;Min_cycle;Max_cycle;Signal;HPM_P1;HPM_P2
2021/11/03 00:00:09;;;;;;;6.45;2.92;;;;;;;;;;5039081;28;20036;-72
2021/11/03 00:02:35;;;;;;;5.97;2.15;;;;;;;;;;5013711;28;20775;-72
2021/11/03 00:05:01;;;;;;;6.35;2.03;;;;;;;;;;5035476;28;20571;-72
2021/11/03 00:07:29;;;;;;;5.90;2.15;;;;;;;;;;5036558;28;20037;-72
2021/11/03 00:09:57;;;;;;;4.57;1.45;;;;;;;;;;5030842;28;20033;-72
2021/11/03 00:12:23;;;;;;;4.20;1.42;;;;;;;;;;5035279;28;20086;-72
2021/11/03 00:14:49;;;;;;;4.78;1.80;;;;;;;;;;5029365;28;20079;-73
2021/11/03 00:17:15;;;;;;;3.17;1.65;;;;;;;;;;5040272;28;20439;-72
2021/11/03 00:19:41;;;;;;;5.82;1.48;;;;;;;;;;5036200;28;20033;-72
2021/11/03 00:22:07;;;;;;;4.47;1.92;;;;;;;;;;5035683;28;20463;-72
2021/11/03 00:24:34;;;;;;;5.50;2.05;;;;;;;;;;5035188;28;20088;-72
2021/11/03 00:27:01;;;;;;;4.78;1.20;;;;;;;;;;5035090;28;20423;-72
2021/11/03 00:29:27;;;;;;;5.40;1.35;;;;;;;;;;5032407;28;20033;-72
2021/11/03 00:31:53;;;;;;;3.67;1.40;;;;;;;;;;5035258;28;20041;-72
2021/11/03 00:34:19;;;;;;;3.85;1.33;;;;;;;;;;5032425;28;20038;-72
2021/11/03 00:36:45;;;;;;;4.07;1.67;;;;;;;;;;5027917;28;20359;-73
2021/11/03 00:39:11;;;;;;;2.13;0.85;;;;;;;;;;5039189;28;20057;-72
2021/11/03 00:41:37;;;;;;;4.07;1.15;;;;;;;;;;5027534;28;20509;-72
2021/11/03 00:44:03;;;;;;;2.13;0.73;;;;;;;;;;5036072;28;20083;-72
2021/11/03 00:46:29;;;;;;;3.03;0.70;;;;;;;;;;5033158;28;20036;-72
2021/11/03 00:48:55;;;;;;;2.05;0.90;;;;;;;;;;5040517;28;20048;-73
2021/11/03 00:51:21;;;;;;;1.17;0.40;;;;;;;;;;5032205;28;20426;-72
2021/11/03 00:53:47;;;;;;;4.95;1.08;;;;;;;;;;5033704;28;20034;-72
2021/11/03 00:56:13;;;;;;;1.98;0.60;;;;;;;;;;5028075;28;20043;-72
2021/11/03 00:58:39;;;;;;;2.05;0.50;;;;;;;;;;5033794;28;20044;-72
2021/11/03 01:01:06;;;;;;;2.15;0.73;;;;;;;;;;5036303;28;20796;-72
2021/11/03 01:03:32;;;;;;;2.80;0.70;;;;;;;;;;5029676;28;20033;-72
2021/11/03 01:05:59;;;;;;;3.15;0.80;;;;;;;;;;5035692;28;20052;-72
2021/11/03 01:08:25;;;;;;;2.67;0.80;;;;;;;;;;5035423;28;20036;-72
2021/11/03 01:10:52;;;;;;;2.63;0.70;;;;;;;;;;5036211;28;20043;-72
2021/11/03 01:13:19;;;;;;;2.15;0.60;;;;;;;;;;5030562;28;20406;-72
2021/11/03 01:15:46;;;;;;;1.65;0.60;;;;;;;;;;5037191;28;20036;-72
2021/11/03 01:18:12;;;;;;;1.83;0.57;;;;;;;;;;5030616;28;20033;-73
2021/11/03 01:20:39;;;;;;;2.17;0.60;;;;;;;;;;5032389;28;20040;-73
2021/11/03 01:23:06;;;;;;;3.45;0.60;;;;;;;;;;5030842;28;20071;-73
2021/11/03 01:25:32;;;;;;;3.15;0.70;;;;;;;;;;5027126;28;20663;-72
2021/11/03 01:27:59;;;;;;;1.80;0.70;;;;;;;;;;5034950;28;20037;-73
2021/11/03 01:30:25;;;;;;;5.60;0.73;;;;;;;;;;5033202;28;20033;-72
2021/11/03 01:32:52;;;;;;;2.65;0.60;;;;;;;;;;5034627;28;20041;-72
2021/11/03 01:35:18;;;;;;;2.42;0.60;;;;;;;;;;5031093;28;20108;-72
2021/11/03 01:37:44;;;;;;;2.13;0.70;;;;;;;;;;5033116;28;20056;-72
2021/11/03 01:40:13;;;;;;;1.90;0.50;;;;;;;;;;5038631;28;20041;-72
2021/11/03 01:42:39;;;;;;;5.28;0.80;;;;;;;;;;5034834;28;20044;-72
2021/11/03 01:45:06;;;;;;;2.30;0.60;;;;;;;;;;5028954;28;20037;-72
2021/11/03 01:47:44;;;;;;;2.92;0.60;;;;;;;;;;5034825;28;20025;-72
2021/11/03 01:50:16;;;;;;;2.90;0.38;;;;;;;;;;5026857;28;20033;-72
2021/11/03 01:52:43;;;;;;;2.08;0.60;;;;;;;;;;5036306;28;20044;-73
2021/11/03 01:55:11;;;;;;;4.43;0.70;;;;;;;;;;5027307;28;20045;-72
2021/11/03 01:57:40;;;;;;;2.13;0.50;;;;;;;;;;5034972;28;20032;-72
2021/11/03 02:00:09;;;;;;;1.40;0.40;;;;;;;;;;5035168;28;20033;-72
2021/11/03 02:02:35;;;;;;;2.60;0.80;;;;;;;;;;5037178;28;20068;-72
2021/11/03 02:05:03;;;;;;;1.92;0.60;;;;;;;;;;5032445;28;20075;-72
2021/11/03 02:07:29;;;;;;;3.97;0.70;;;;;;;;;;5036001;28;20064;-72
2021/11/03 02:09:55;;;;;;;3.40;0.60;;;;;;;;;;5032236;28;20495;-72
2021/11/03 02:12:22;;;;;;;2.97;0.73;;;;;;;;;;5025008;28;20029;-72
2021/11/03 02:14:48;;;;;;;3.53;1.02;;;;;;;;;;5027593;28;20048;-72
2021/11/03 02:17:15;;;;;;;2.13;0.60;;;;;;;;;;5035208;28;20178;-72
2021/11/03 02:19:42;;;;;;;2.45;0.80;;;;;;;;;;5030865;28;20475;-72
2021/11/03 02:22:08;;;;;;;6.30;0.90;;;;;;;;;;5038258;28;20021;-72
2021/11/03 02:24:57;;;;;;;4.38;0.77;;;;;;;;;;5042279;28;20106;-72
2021/11/03 02:27:24;;;;;;;3.95;0.82;;;;;;;;;;5009899;28;20128;-72
2021/11/03 02:29:51;;;;;;;3.65;0.60;;;;;;;;;;5035085;28;20033;-72
2021/11/03 02:32:19;;;;;;;2.83;0.50;;;;;;;;;;5048008;28;20036;-72
2021/11/03 02:34:45;;;;;;;1.50;0.60;;;;;;;;;;5043086;28;20145;-72
2021/11/03 02:37:30;;;;;;;3.17;0.70;;;;;;;;;;5038053;28;20072;-72
2021/11/03 02:40:05;;;;;;;4.03;0.60;;;;;;;;;;5043960;28;20045;-72
2021/11/03 02:42:32;;;;;;;3.03;0.40;;;;;;;;;;5043991;28;20025;-72
2021/11/03 02:44:59;;;;;;;4.00;0.60;;;;;;;;;;5042317;28;20033;-73
2021/11/03 02:47:26;;;;;;;3.15;0.80;;;;;;;;;;5043241;28;20036;-72
2021/11/03 02:49:52;;;;;;;1.77;0.50;;;;;;;;;;5038332;28;20033;-72
2021/11/03 02:52:23;;;;;;;1.73;0.30;;;;;;;;;;5041783;28;20450;-72
2021/11/03 02:54:49;;;;;;;1.60;0.40;;;;;;;;;;5038104;28;20034;-72
2021/11/03 02:57:16;;;;;;;3.03;0.40;;;;;;;;;;5040345;28;20164;-72
2021/11/03 02:59:42;;;;;;;3.70;0.50;;;;;;;;;;5041808;28;20086;-72
2021/11/03 03:02:09;;;;;;;2.83;0.40;;;;;;;;;;5035405;28;20254;-72
2021/11/03 03:04:45;;;;;;;3.75;0.60;;;;;;;;;;5040755;28;20025;-72
2021/11/03 03:07:12;;;;;;;3.97;0.60;;;;;;;;;;5039691;28;20490;-72
2021/11/03 03:09:38;;;;;;;3.38;0.50;;;;;;;;;;5037239;28;20108;-72
2021/11/03 03:12:06;;;;;;;3.28;0.50;;;;;;;;;;5037294;28;20036;-72
2021/11/03 03:14:34;;;;;;;2.38;0.50;;;;;;;;;;5038352;28;20029;-72
2021/11/03 03:17:00;;;;;;;1.50;0.50;;;;;;;;;;5042474;28;20066;-72
2021/11/03 03:19:26;;;;;;;2.00;0.40;;;;;;;;;;5045532;28;20040;-72
2021/11/03 03:21:52;;;;;;;3.25;0.70;;;;;;;;;;5033129;28;20021;-72
2021/11/03 03:24:19;;;;;;;3.22;1.00;;;;;;;;;;5039578;28;20040;-73
2021/11/03 03:26:45;;;;;;;2.92;0.75;;;;;;;;;;5038390;28;20547;-72
2021/11/03 03:29:12;;;;;;;3.25;0.82;;;;;;;;;;5039657;28;20134;-72
2021/11/03 03:31:38;;;;;;;7.10;0.90;;;;;;;;;;5052490;28;20044;-72
2021/11/03 03:34:06;;;;;;;4.07;0.80;;;;;;;;;;5042070;28;20032;-72
2021/11/03 03:36:32;;;;;;;9.18;2.97;;;;;;;;;;5027856;28;20041;-72
2021/11/03 03:38:59;;;;;;;9.90;4.45;;;;;;;;;;5038159;28;20154;-72
2021/11/03 03:41:27;;;;;;;11.38;4.47;;;;;;;;;;5035158;28;20061;-72
2021/11/03 03:43:53;;;;;;;3.60;1.10;;;;;;;;;;5032450;28;20112;-72
2021/11/03 03:46:20;;;;;;;3.35;0.88;;;;;;;;;;5035532;28;20040;-72
2021/11/03 03:48:46;;;;;;;1.95;0.50;;;;;;;;;;5038929;28;20032;-72
2021/11/03 03:51:13;;;;;;;13.05;2.00;;;;;;;;;;5036467;28;20037;-72
2021/11/03 03:53:39;;;;;;;6.40;2.25;;;;;;;;;;5037549;28;20035;-72
2021/11/03 03:56:05;;;;;;;5.03;1.35;;;;;;;;;;5032132;28;20064;-72
2021/11/03 03:58:31;;;;;;;5.72;1.50;;;;;;;;;;5038199;28;20118;-72
2021/11/03 04:00:58;;;;;;;6.38;1.08;;;;;;;;;;5038047;28;20103;-72
2021/11/03 04:03:24;;;;;;;7.38;1.05;;;;;;;;;;5029909;28;20116;-72
2021/11/03 04:05:50;;;;;;;6.30;1.17;;;;;;;;;;5028991;28;20043;-72
2021/11/03 04:08:19;;;;;;;5.35;1.20;;;;;;;;;;5031204;28;20029;-72
2021/11/03 04:10:46;;;;;;;4.45;1.00;;;;;;;;;;5030018;28;20061;-72
2021/11/03 04:13:12;;;;;;;3.42;0.90;;;;;;;;;;5038620;28;20053;-73
2021/11/03 04:15:38;;;;;;;3.05;1.02;;;;;;;;;;5035668;28;20114;-72
2021/11/03 04:18:04;;;;;;;7.72;1.48;;;;;;;;;;5035440;28;20028;-72
2021/11/03 04:20:30;;;;;;;9.38;2.10;;;;;;;;;;5034471;28;20120;-72
2021/11/03 04:22:57;;;;;;;5.75;1.60;;;;;;;;;;5032322;28;20021;-72
2021/11/03 04:25:24;;;;;;;4.93;1.05;;;;;;;;;;5033182;28;20044;-72
2021/11/03 04:27:50;;;;;;;4.65;1.25;;;;;;;;;;5043066;28;20402;-72
2021/11/03 04:30:18;;;;;;;3.88;1.38;;;;;;;;;;5038732;28;20398;-72
2021/11/03 04:32:44;;;;;;;8.48;2.20;;;;;;;;;;5034383;28;20520;-72
2021/11/03 04:35:10;;;;;;;13.45;7.63;;;;;;;;;;5036038;28;20112;-73
2021/11/03 04:37:37;;;;;;;24.00;14.55;;;;;;;;;;5030215;28;20159;-72
2021/11/03 04:40:04;;;;;;;13.88;7.32;;;;;;;;;;5031950;28;20034;-73
2021/11/03 04:42:30;;;;;;;7.32;2.70;;;;;;;;;;5040633;28;20025;-72
2021/11/03 04:44:56;;;;;;;8.23;4.03;;;;;;;;;;5034999;28;20029;-72
2021/11/03 04:47:22;;;;;;;8.18;2.50;;;;;;;;;;5033142;28;20522;-72
2021/11/03 04:49:48;;;;;;;12.65;4.43;;;;;;;;;;5031374;28;20040;-73
2021/11/03 04:52:14;;;;;;;9.05;3.50;;;;;;;;;;5040150;28;20033;-72
2021/11/03 04:54:40;;;;;;;10.45;3.47;;;;;;;;;;5035050;28;20490;-72
2021/11/03 04:57:07;;;;;;;8.77;3.25;;;;;;;;;;5031128;28;20029;-72
2021/11/03 04:59:33;;;;;;;8.30;3.72;;;;;;;;;;5033046;28;20044;-72
2021/11/03 05:01:59;;;;;;;7.00;3.35;;;;;;;;;;5029419;28;20538;-72
2021/11/03 05:04:25;;;;;;;8.13;3.22;;;;;;;;;;5028709;28;20036;-72
2021/11/03 05:06:52;;;;;;;6.43;2.15;;;;;;;;;;5033058;28;20037;-72
2021/11/03 05:09:18;;;;;;;4.22;1.65;;;;;;;;;;5040416;28;20041;-72
2021/11/03 05:11:44;;;;;;;5.78;1.60;;;;;;;;;;5029115;28;20032;-72
2021/11/03 05:14:10;;;;;;;3.25;1.27;;;;;;;;;;5046431;28;20079;-72
2021/11/03 05:16:36;;;;;;;3.13;1.20;;;;;;;;;;5032734;28;20032;-72
2021/11/03 05:19:03;;;;;;;10.75;4.15;;;;;;;;;;5041169;28;20108;-72
2021/11/03 05:21:29;;;;;;;11.63;4.35;;;;;;;;;;5028934;28;20036;-72
2021/11/03 05:23:56;;;;;;;11.20;4.18;;;;;;;;;;5035323;28;20671;-72
2021/11/03 05:26:23;;;;;;;11.32;4.15;;;;;;;;;;5034994;28;20068;-72
2021/11/03 05:28:51;;;;;;;11.85;3.92;;;;;;;;;;5032799;28;20044;-72
2021/11/03 05:31:18;;;;;;;8.48;3.50;;;;;;;;;;5034449;28;20435;-72
2021/11/03 05:33:44;;;;;;;8.10;3.63;;;;;;;;;;5031706;28;20037;-72
2021/11/03 05:36:17;;;;;;;8.07;3.50;;;;;;;;;;5029705;28;20040;-72
2021/11/03 05:38:43;;;;;;;5.85;2.80;;;;;;;;;;5032775;28;20060;-72
2021/11/03 05:41:09;;;;;;;9.70;3.05;;;;;;;;;;5035502;28;20410;-72
2021/11/03 05:43:35;;;;;;;5.90;2.53;;;;;;;;;;5038576;28;20102;-73
2021/11/03 05:46:01;;;;;;;5.97;2.67;;;;;;;;;;5028136;28;20034;-72
2021/11/03 05:48:28;;;;;;;5.82;2.72;;;;;;;;;;5036908;28;20033;-72
2021/11/03 05:50:55;;;;;;;10.52;4.53;;;;;;;;;;5029517;28;20053;-72
2021/11/03 05:53:21;;;;;;;9.02;5.18;;;;;;;;;;5031229;28;20167;-72
2021/11/03 05:55:47;;;;;;;10.80;6.72;;;;;;;;;;5027752;28;20030;-72
2021/11/03 05:58:13;;;;;;;14.43;9.30;;;;;;;;;;5036554;28;20033;-72
2021/11/03 06:00:39;;;;;;;15.30;9.02;;;;;;;;;;5034876;28;20034;-72
2021/11/03 06:03:05;;;;;;;11.35;7.88;;;;;;;;;;5027194;28;20879;-72
2021/11/03 06:05:31;;;;;;;13.93;8.77;;;;;;;;;;5034417;28;20040;-72
2021/11/03 06:07:59;;;;;;;13.48;8.43;;;;;;;;;;5032882;28;20641;-72
2021/11/03 06:10:28;;;;;;;11.90;9.00;;;;;;;;;;5024792;28;20030;-72
2021/11/03 06:12:54;;;;;;;17.33;12.30;;;;;;;;;;5037113;28;20037;-72
2021/11/03 06:15:22;;;;;;;14.00;10.73;;;;;;;;;;5031004;28;20037;-72
2021/11/03 06:17:49;;;;;;;14.63;9.25;;;;;;;;;;5033159;28;20378;-72
2021/11/03 06:20:15;;;;;;;17.15;11.73;;;;;;;;;;5032486;28;20072;-72
2021/11/03 06:22:41;;;;;;;19.92;13.32;;;;;;;;;;5031504;28;20036;-72
2021/11/03 06:25:07;;;;;;;18.85;11.77;;;;;;;;;;5035493;28;20021;-72
2021/11/03 06:27:33;;;;;;;20.88;12.68;;;;;;;;;;5034129;28;20033;-72
2021/11/03 06:29:59;;;;;;;20.13;13.50;;;;;;;;;;5035773;28;20033;-72
2021/11/03 06:32:25;;;;;;;19.58;12.93;;;;;;;;;;5034265;28;20834;-72
2021/11/03 06:34:51;;;;;;;18.50;12.07;;;;;;;;;;5038743;28;20033;-72
2021/11/03 06:37:17;;;;;;;12.70;7.50;;;;;;;;;;5032294;28;20414;-72
2021/11/03 06:39:43;;;;;;;13.98;7.68;;;;;;;;;;5034629;28;20041;-72
2021/11/03 06:42:09;;;;;;;13.73;6.97;;;;;;;;;;5035093;28;20391;-72
2021/11/03 06:44:35;;;;;;;13.45;7.00;;;;;;;;;;5032956;28;20080;-72
2021/11/03 06:47:01;;;;;;;15.18;7.53;;;;;;;;;;5028485;28;20025;-72
2021/11/03 06:49:27;;;;;;;20.65;9.38;;;;;;;;;;5038865;28;20083;-72
2021/11/03 06:51:53;;;;;;;17.88;6.70;;;;;;;;;;5032995;28;20025;-72
2021/11/03 06:54:21;;;;;;;22.38;8.32;;;;;;;;;;5037455;28;20118;-72
2021/11/03 06:56:48;;;;;;;16.98;7.35;;;;;;;;;;5043476;28;20057;-73
2021/11/03 06:59:14;;;;;;;7.60;2.88;;;;;;;;;;5037219;28;20491;-72
2021/11/03 07:01:40;;;;;;;8.30;2.60;;;;;;;;;;5031615;28;20029;-72
2021/11/03 07:04:07;;;;;;;7.63;2.03;;;;;;;;;;5034192;28;20033;-72
2021/11/03 07:06:34;;;;;;;7.43;2.17;;;;;;;;;;5036123;28;20433;-72
2021/11/03 07:09:00;;;;;;;9.10;1.70;;;;;;;;;;5035595;28;20025;-72
2021/11/03 07:11:28;;;;;;;10.68;2.35;;;;;;;;;;5039821;28;20037;-72
2021/11/03 07:13:55;;;;;;;5.68;0.70;;;;;;;;;;5033964;28;20660;-72
2021/11/03 07:16:21;;;;;;;2.28;0.50;;;;;;;;;;5032106;28;20048;-72
2021/11/03 07:18:47;;;;;;;2.03;0.65;;;;;;;;;;5036609;28;20443;-72
2021/11/03 07:21:13;;;;;;;1.50;0.30;;;;;;;;;;5035183;28;20083;-72
2021/11/03 07:23:39;;;;;;;1.80;0.40;;;;;;;;;;5039122;28;20036;-72
2021/11/03 07:26:05;;;;;;;4.65;0.30;;;;;;;;;;5046029;28;20039;-72
2021/11/03 07:28:32;;;;;;;2.17;0.30;;;;;;;;;;5037949;28;20056;-72
2021/11/03 07:30:58;;;;;;;2.28;0.43;;;;;;;;;;5038795;28;20056;-72
2021/11/03 07:33:24;;;;;;;4.47;0.30;;;;;;;;;;5032166;28;20151;-73
2021/11/03 07:35:50;;;;;;;3.00;0.52;;;;;;;;;;5048709;28;20477;-72
2021/11/03 07:38:16;;;;;;;2.05;0.55;;;;;;;;;;5039121;28;20494;-72
2021/11/03 07:40:44;;;;;;;3.65;1.27;;;;;;;;;;5043027;28;20037;-72
2021/11/03 07:43:12;;;;;;;2.85;0.60;;;;;;;;;;5035605;28;20086;-72
2021/11/03 07:45:39;;;;;;;3.03;0.50;;;;;;;;;;5043021;28;20045;-72
2021/11/03 07:48:06;;;;;;;5.50;1.80;;;;;;;;;;5036502;28;20611;-72
2021/11/03 07:50:36;;;;;;;5.45;1.23;;;;;;;;;;5042087;28;20041;-73
2021/11/03 07:53:03;;;;;;;9.20;2.63;;;;;;;;;;5038394;28;20147;-72
2021/11/03 07:55:29;;;;;;;6.22;1.65;;;;;;;;;;5043130;28;20131;-72
2021/11/03 07:57:55;;;;;;;4.93;1.23;;;;;;;;;;5037176;28;20745;-72
2021/11/03 08:00:40;;;;;;;3.85;0.88;;;;;;;;;;5038331;28;20033;-72
2021/11/03 08:03:06;;;;;;;2.65;0.50;;;;;;;;;;5036444;28;20060;-72
2021/11/03 08:05:33;;;;;;;1.63;0.38;;;;;;;;;;5034889;28;20065;-72
2021/11/03 08:08:00;;;;;;;3.17;0.57;;;;;;;;;;5038049;28;20171;-72
2021/11/03 08:10:27;;;;;;;1.60;0.43;;;;;;;;;;5036056;28;20041;-72
2021/11/03 08:12:55;;;;;;;3.00;0.57;;;;;;;;;;5041189;28;20033;-72
2021/11/03 08:15:21;;;;;;;1.25;0.30;;;;;;;;;;5036292;28;20516;-72
2021/11/03 08:17:48;;;;;;;1.85;0.40;;;;;;;;;;5032931;28;20143;-72
2021/11/03 08:20:20;;;;;;;1.98;0.30;;;;;;;;;;5035747;28;20069;-72
2021/11/03 08:22:46;;;;;;;2.28;0.40;;;;;;;;;;5040368;28;20080;-72
2021/11/03 08:25:12;;;;;;;1.85;0.30;;;;;;;;;;5035609;28;20371;-72
2021/11/03 08:27:40;;;;;;;1.25;0.20;;;;;;;;;;5040000;28;20032;-72
2021/11/03 08:30:07;;;;;;;2.05;0.38;;;;;;;;;;5037098;28;20112;-72
2021/11/03 08:32:36;;;;;;;2.72;0.40;;;;;;;;;;5037335;28;20120;-72
2021/11/03 08:35:05;;;;;;;3.08;0.40;;;;;;;;;;5032971;28;20111;-72
2021/11/03 08:37:32;;;;;;;2.75;0.40;;;;;;;;;;5039205;28;20410;-72
2021/11/03 08:39:59;;;;;;;2.92;0.45;;;;;;;;;;5034603;28;20045;-72
2021/11/03 08:42:25;;;;;;;2.78;0.57;;;;;;;;;;5034373;28;20033;-72
2021/11/03 08:44:52;;;;;;;2.55;0.65;;;;;;;;;;5033783;28;20696;-72
2021/11/03 08:47:18;;;;;;;4.22;1.13;;;;;;;;;;5040597;28;20045;-72
2021/11/03 08:49:44;;;;;;;4.10;0.60;;;;;;;;;;5037542;28;20041;-72
2021/11/03 08:52:10;;;;;;;3.10;0.77;;;;;;;;;;5043578;28;20029;-72
2021/11/03 08:54:37;;;;;;;4.60;1.20;;;;;;;;;;5036238;28;20067;-72
2021/11/03 08:57:03;;;;;;;5.20;0.98;;;;;;;;;;5041263;28;20078;-72
2021/11/03 08:59:30;;;;;;;3.35;1.10;;;;;;;;;;5036103;28;20436;-72
2021/11/03 09:01:56;;;;;;;5.38;1.10;;;;;;;;;;5033655;28;20025;-72
2021/11/03 09:04:22;;;;;;;9.00;1.30;;;;;;;;;;5034603;28;20033;-72
2021/11/03 09:06:48;;;;;;;6.32;1.08;;;;;;;;;;5041561;28;20021;-72
2021/11/03 09:09:14;;;;;;;5.13;0.93;;;;;;;;;;5033594;28;20037;-72
2021/11/03 09:11:40;;;;;;;3.92;1.15;;;;;;;;;;5038963;28;20037;-72
2021/11/03 09:14:06;;;;;;;4.75;1.13;;;;;;;;;;5041874;28;20033;-72
2021/11/03 09:16:33;;;;;;;4.47;1.10;;;;;;;;;;5039697;28;20513;-72
2021/11/03 09:18:59;;;;;;;5.32;1.17;;;;;;;;;;5039591;28;20032;-72
2021/11/03 09:21:25;;;;;;;7.35;1.77;;;;;;;;;;5033516;28;20033;-72
2021/11/03 09:23:51;;;;;;;6.88;1.60;;;;;;;;;;5040122;28;20123;-73
2021/11/03 09:26:20;;;;;;;4.88;1.00;;;;;;;;;;5038975;28;20033;-72
2021/11/03 09:28:46;;;;;;;4.18;0.85;;;;;;;;;;5036482;28;20032;-72
2021/11/03 09:31:13;;;;;;;2.08;0.80;;;;;;;;;;5034874;28;20036;-73
2021/11/03 09:33:40;;;;;;;3.33;0.90;;;;;;;;;;5035032;28;20041;-72
2021/11/03 09:36:07;;;;;;;3.63;0.82;;;;;;;;;;5040937;28;20036;-72
2021/11/03 09:38:33;;;;;;;5.18;1.08;;;;;;;;;;5031456;28;20099;-72
2021/11/03 09:41:06;;;;;;;3.80;0.93;;;;;;;;;;5038490;28;20029;-72
2021/11/03 09:43:43;;;;;;;3.08;1.10;;;;;;;;;;5034091;28;20044;-72
2021/11/03 09:46:15;;;;;;;3.00;0.80;;;;;;;;;;5037868;28;20068;-72
2021/11/03 09:48:41;;;;;;;6.47;1.23;;;;;;;;;;5035518;28;20032;-72
2021/11/03 09:51:15;;;;;;;4.97;1.45;;;;;;;;;;5036632;28;20021;-72
2021/11/03 09:53:44;;;;;;;5.53;1.92;;;;;;;;;;5036489;28;20804;-72
2021/11/03 09:56:13;;;;;;;5.85;1.63;;;;;;;;;;5040364;28;20029;-72
2021/11/03 09:59:01;;;;;;;4.75;2.17;;;;;;;;;;5031156;28;20037;-72
2021/11/03 10:01:30;;;;;;;8.93;1.88;;;;;;;;;;5040011;28;20040;-72
2021/11/03 10:04:05;;;;;;;7.65;2.65;;;;;;;;;;5032214;28;20025;-72
2021/11/03 10:06:57;;;;;;;4.93;1.73;;;;;;;;;;5039322;28;20116;-72
2021/11/03 10:09:23;;;;;;;4.75;1.63;;;;;;;;;;5030268;28;20502;-72
2021/11/03 10:11:52;;;;;;;6.18;2.17;;;;;;;;;;5041394;28;20041;-72
2021/11/03 10:14:18;;;;;;;2.72;0.63;;;;;;;;;;5033971;28;20131;-72
2021/11/03 10:16:49;;;;;;;7.13;2.08;;;;;;;;;;5037208;28;20045;-72
2021/11/03 10:19:15;;;;;;;13.43;4.72;;;;;;;;;;5033094;28;20037;-72
2021/11/03 10:21:44;;;;;;;6.82;2.22;;;;;;;;;;5031740;28;20025;-72
2021/11/03 10:24:14;;;;;;;5.10;1.58;;;;;;;;;;5030807;28;20079;-72
2021/11/03 10:26:57;;;;;;;5.47;1.00;;;;;;;;;;5038953;28;20041;-72
2021/11/03 10:29:31;;;;;;;5.78;1.63;;;;;;;;;;5038135;28;20033;-72
2021/11/03 10:31:59;;;;;;;9.15;1.73;;;;;;;;;;5036112;28;20033;-72
2021/11/03 10:34:28;;;;;;;10.45;2.85;;;;;;;;;;5034837;28;20121;-72
2021/11/03 10:37:00;;;;;;;4.00;1.00;;;;;;;;;;5033701;28;20095;-72
2021/11/03 10:39:27;;;;;;;5.95;1.05;;;;;;;;;;5030502;28;20053;-72
2021/11/03 10:41:59;;;;;;;3.45;0.77;;;;;;;;;;5031093;28;20030;-72
2021/11/03 10:44:26;;;;;;;2.15;0.60;;;;;;;;;;5040382;28;20800;-72
2021/11/03 10:46:57;;;;;;;1.80;0.60;;;;;;;;;;5040508;28;20025;-72
2021/11/03 10:49:27;;;;;;;2.85;0.75;;;;;;;;;;5037731;28;20065;-72
2021/11/03 10:51:59;;;;;;;1.90;0.30;;;;;;;;;;5049280;28;20536;-72
2021/11/03 10:54:35;;;;;;;5.45;2.08;;;;;;;;;;5036184;28;20064;-72
2021/11/03 10:57:10;;;;;;;5.38;2.80;;;;;;;;;;5041345;28;20017;-72
2021/11/03 10:59:48;;;;;;;1.20;0.47;;;;;;;;;;5036577;28;20545;-72
2021/11/03 11:02:22;;;;;;;3.33;1.08;;;;;;;;;;5037539;28;20033;-72
2021/11/03 11:04:49;;;;;;;4.22;1.80;;;;;;;;;;5041045;28;20036;-73
2021/11/03 11:07:23;;;;;;;1.50;0.63;;;;;;;;;;5037794;28;20041;-72
2021/11/03 11:09:51;;;;;;;7.75;4.07;;;;;;;;;;5038980;28;20491;-72
2021/11/03 11:12:43;;;;;;;7.93;3.75;;;;;;;;;;5037449;28;20044;-72
2021/11/03 11:15:33;;;;;;;5.22;1.25;;;;;;;;;;5029758;28;20053;-72
2021/11/03 11:18:25;;;;;;;2.50;0.60;;;;;;;;;;5038369;28;20064;-72
2021/11/03 11:20:55;;;;;;;5.55;1.10;;;;;;;;;;5036790;28;20056;-72
2021/11/03 11:23:21;;;;;;;2.15;0.80;;;;;;;;;;5036450;28;20202;-73
2021/11/03 11:26:03;;;;;;;6.60;1.00;;;;;;;;;;5035869;28;20823;-72
2021/11/03 11:28:47;;;;;;;3.30;1.50;;;;;;;;;;5035733;28;20048;-72
2021/11/03 11:31:30;;;;;;;3.90;1.63;;;;;;;;;;5038430;28;20070;-72
2021/11/03 11:34:08;;;;;;;1.73;0.50;;;;;;;;;;5048762;28;20147;-72
2021/11/03 11:36:34;;;;;;;5.47;2.42;;;;;;;;;;5038355;28;20098;-72
2021/11/03 11:39:16;;;;;;;4.72;2.47;;;;;;;;;;5037628;28;20478;-72
2021/11/03 11:41:51;;;;;;;13.63;8.18;;;;;;;;;;5035401;28;20064;-72
2021/11/03 11:44:24;;;;;;;10.77;5.75;;;;;;;;;;5041627;28;20068;-72
2021/11/03 11:46:51;;;;;;;10.60;7.05;;;;;;;;;;5032941;28;20614;-72
2021/11/03 11:49:25;;;;;;;7.85;3.45;;;;;;;;;;5043071;28;20040;-72
2021/11/03 11:52:00;;;;;;;9.73;2.88;;;;;;;;;;5033847;28;20037;-72
2021/11/03 11:54:27;;;;;;;12.75;7.43;;;;;;;;;;5036689;28;20048;-72
2021/11/03 11:57:11;;;;;;;11.55;7.68;;;;;;;;;;5038266;28;20069;-72
2021/11/03 12:00:00;;;;;;;11.40;6.95;;;;;;;;;;5045290;28;20095;-72
2021/11/03 12:02:28;;;;;;;15.27;8.73;;;;;;;;;;5033544;28;20774;-72
2021/11/03 12:05:13;;;;;;;6.82;4.07;;;;;;;;;;5045273;28;20029;-72
2021/11/03 12:07:40;;;;;;;3.22;1.10;;;;;;;;;;5035653;28;20121;-72
2021/11/03 12:10:18;;;;;;;3.28;1.23;;;;;;;;;;5045885;28;20570;-72
2021/11/03 12:13:03;;;;;;;3.80;1.48;;;;;;;;;;5040330;28;20076;-72
2021/11/03 12:15:58;;;;;;;3.58;0.70;;;;;;;;;;5045657;28;20041;-72
2021/11/03 12:18:27;;;;;;;3.15;1.65;;;;;;;;;;5034561;28;20040;-72
2021/11/03 12:20:59;;;;;;;14.45;9.23;;;;;;;;;;5037563;28;20025;-72
2021/11/03 12:23:43;;;;;;;9.07;5.40;;;;;;;;;;5033764;28;20046;-73
2021/11/03 12:26:28;;;;;;;9.50;4.55;;;;;;;;;;5042656;28;20801;-72
2021/11/03 12:28:57;;;;;;;14.45;8.57;;;;;;;;;;5034025;28;20048;-72
2021/11/03 12:31:28;;;;;;;21.35;12.35;;;;;;;;;;5038773;28;20083;-72
2021/11/03 12:34:03;;;;;;;25.00;13.18;;;;;;;;;;5038425;28;20036;-72
2021/11/03 12:36:31;;;;;;;20.38;11.27;;;;;;;;;;5033187;28;20041;-72
2021/11/03 12:38:59;;;;;;;12.23;7.00;;;;;;;;;;5032675;28;20057;-72
2021/11/03 12:41:31;;;;;;;6.78;2.83;;;;;;;;;;5047304;28;20030;-72
2021/11/03 12:43:57;;;;;;;;;;;;;;;;;;5036330;28;20480;-72
2021/11/03 12:46:23;;;;;;;10.60;5.32;;;;;;;;;;5044623;28;19928;-72
2021/11/03 12:48:55;;;;;;;3.75;0.90;;;;;;;;;;5037930;28;20048;-72
2021/11/03 12:51:23;;;;;;;2.30;0.97;;;;;;;;;;5038750;28;20864;-72
2021/11/03 12:53:51;;;;;;;4.47;1.23;;;;;;;;;;5035103;28;20037;-72
2021/11/03 12:56:20;;;;;;;7.25;3.88;;;;;;;;;;5041007;28;20030;-72
2021/11/03 12:58:48;;;;;;;3.40;0.98;;;;;;;;;;5031952;28;20033;-72
2021/11/03 13:01:21;;;;;;;4.15;1.00;;;;;;;;;;5032001;28;20030;-72
2021/11/03 13:04:17;;;;;;;2.65;1.00;;;;;;;;;;5030577;28;20152;-72
2021/11/03 13:06:53;;;;;;;2.40;0.90;;;;;;;;;;5021443;28;20053;-72
2021/11/03 13:09:26;;;;;;;2.50;0.55;;;;;;;;;;5039641;28;20138;-72
2021/11/03 13:11:52;;;;;;;1.80;0.70;;;;;;;;;;5041240;28;20095;-72
2021/11/03 13:14:20;;;;;;;6.80;3.53;;;;;;;;;;5037409;28;20451;-72
2021/11/03 13:16:48;;;;;;;7.13;2.80;;;;;;;;;;5036101;28;20067;-72
2021/11/03 13:19:19;;;;;;;5.78;2.33;;;;;;;;;;5035982;28;20040;-72
2021/11/03 13:21:46;;;;;;;6.22;1.80;;;;;;;;;;5038373;28;20029;-72
2021/11/03 13:24:14;;;;;;;10.63;5.60;;;;;;;;;;5033539;28;20067;-72
2021/11/03 13:26:41;;;;;;;24.55;15.80;;;;;;;;;;5030873;28;20604;-72
2021/11/03 13:29:08;;;;;;;9.13;4.53;;;;;;;;;;5038289;28;20025;-72
2021/11/03 13:31:36;;;;;;;10.55;5.63;;;;;;;;;;5031314;28;20450;-73
2021/11/03 13:34:18;;;;;;;8.85;4.63;;;;;;;;;;5033382;28;20485;-72
2021/11/03 13:36:58;;;;;;;3.13;1.40;;;;;;;;;;5031758;28;20040;-72
2021/11/03 13:39:27;;;;;;;5.43;1.90;;;;;;;;;;5034223;28;20880;-72
2021/11/03 13:41:53;;;;;;;6.28;2.40;;;;;;;;;;5034371;28;20156;-72
2021/11/03 13:44:22;;;;;;;8.00;2.95;;;;;;;;;;5035617;28;20038;-72
2021/11/03 13:46:58;;;;;;;6.85;3.20;;;;;;;;;;5038503;28;20033;-72
2021/11/03 13:49:26;;;;;;;8.15;3.60;;;;;;;;;;5036955;28;20579;-72
2021/11/03 13:51:54;;;;;;;10.88;4.00;;;;;;;;;;5037897;28;20063;-72
2021/11/03 13:54:20;;;;;;;7.78;3.70;;;;;;;;;;5037335;28;20037;-73
2021/11/03 13:56:50;;;;;;;6.38;3.13;;;;;;;;;;5038398;28;20036;-72
2021/11/03 13:59:17;;;;;;;8.45;2.97;;;;;;;;;;5036617;28;20075;-72
2021/11/03 14:01:47;;;;;;;8.45;2.47;;;;;;;;;;5038405;28;20073;-72
2021/11/03 14:04:15;;;;;;;8.52;3.65;;;;;;;;;;5031469;28;20026;-72
2021/11/03 14:06:46;;;;;;;6.78;3.30;;;;;;;;;;5034587;28;20041;-72
2021/11/03 14:09:19;;;;;;;5.65;2.75;;;;;;;;;;5036957;28;20032;-72
2021/11/03 14:11:46;;;;;;;10.63;5.28;;;;;;;;;;5034182;28;20888;-72
2021/11/03 14:14:13;;;;;;;7.35;3.15;;;;;;;;;;5037625;28;20035;-72
2021/11/03 14:16:47;;;;;;;7.13;2.58;;;;;;;;;;5034665;28;20415;-72
2021/11/03 14:19:22;;;;;;;9.05;4.38;;;;;;;;;;5035780;28;20036;-72
2021/11/03 14:21:49;;;;;;;9.50;4.93;;;;;;;;;;5035137;28;20391;-72
2021/11/03 14:24:16;;;;;;;6.72;2.65;;;;;;;;;;5041434;28;20048;-72
2021/11/03 14:26:42;;;;;;;5.22;1.90;;;;;;;;;;5037105;28;20037;-73
2021/11/03 14:29:08;;;;;;;6.07;2.00;;;;;;;;;;5037488;28;20538;-72
2021/11/03 14:31:35;;;;;;;4.85;1.77;;;;;;;;;;5034862;28;20569;-72
2021/11/03 14:34:03;;;;;;;7.07;1.73;;;;;;;;;;5029392;28;20040;-72
2021/11/03 14:36:29;;;;;;;5.28;1.90;;;;;;;;;;5045715;28;20041;-72
2021/11/03 14:38:56;;;;;;;5.28;2.17;;;;;;;;;;5035108;28;20532;-72
2021/11/03 14:41:24;;;;;;;7.95;2.58;;;;;;;;;;5033544;28;20125;-72
2021/11/03 14:43:51;;;;;;;8.30;2.45;;;;;;;;;;5028794;28;20417;-72
2021/11/03 14:46:28;;;;;;;8.73;3.60;;;;;;;;;;5037450;28;20041;-72
2021/11/03 14:48:55;;;;;;;8.23;3.75;;;;;;;;;;5029809;28;20036;-72